Blue Oak Ranch Reserve, California Weather observations

Data are for 10 minute period ending at time listed.
 Day   Time   Solar   Ave.   Ave.  Ave.  Vector  Max.   Baro.   Total    
  of    of     Rad.   Air    Rel.  Wind   Wind   Wind  Press.  Precip.   
Year   Day            Temp.  Hum.  Speed  Dir.   Gust                    
2026   (PST)  Kw/m2    F      %     mph   deg.    mph    mb.     in.     
-------------------------------------------------------------------------
 247    5:40   0.01   50.1    95    0.5   295     2.0   947.5    0.00 
 247    5:50   0.01   49.8    95    1.5    59     2.8   947.5    0.00 
 247    6:00   0.01   49.3    95    0.7   277     2.0   947.5    0.00 
 247    6:10   0.02   49.2    95    1.4   272     2.3   947.6    0.00 
 247    6:20   0.02   49.2    96    1.0    76     2.0   947.6    0.00 
 247    6:30   0.02   49.2    96    0.0    80     0.6   947.7    0.00 
 247    6:40   0.17   49.5    96    1.0   264     1.8   947.8    0.00 
 247    6:50   0.24   51.1    96    0.5   283     1.3   947.9    0.00 
 247    7:00   0.27   52.8    95    1.0   281     2.8   948.0    0.00 
 247    7:10   0.29   54.5    94    0.7   263     1.9   948.2    0.00 
 247    7:20   0.32   55.9    91    1.4    75     2.5   948.3    0.00 
 247    7:30   0.34   57.7    87    0.7    78     2.0   948.3    0.00 
 247    7:40   0.37   59.3    78    0.3   122     1.2   948.3    0.00 
 247    7:50   0.39   61.4    66    0.0    20     1.2   948.3    0.00 
 247    8:00   0.41   63.0    62    0.8   262     3.3   948.3    0.00 
 247    8:10   0.44   62.6    63    3.3   270     6.2   948.3    0.00 
 247    8:20   0.47   63.1    59    4.3   274     6.9   948.4    0.00 
 247    8:30   0.50   62.8    54    3.5   254     6.5   948.5    0.00 
 247    8:40   0.53   62.2    54    3.1   293     6.4   948.6    0.00 
 247    8:50   0.54   63.1    56    2.7   278     6.1   948.7    0.00 
 247    9:00   0.60   62.7    62    4.1   252     8.1   948.9    0.00 
 247    9:10   0.62   61.5    73    5.3   252     9.7   949.0    0.00 
 247    9:20   0.66   61.9    69    5.5   246     8.5   949.0    0.00 
 247    9:30   0.68   61.2    68    4.3   229     8.0   949.1    0.00 
 247    9:40   0.70   61.2    68    5.3   230     9.4   949.1    0.00 
 247    9:50   0.73   62.0    65    5.3   245    10.0   949.1    0.00 
 247   10:00   0.75   62.6    62    5.4   242    11.9   949.0    0.00 
 247   10:10   0.78   62.5    60    5.0   261    10.2   949.1    0.00 
 247   10:20   0.80   64.1    56    6.5   248    11.1   949.1    0.00 
 247   10:30   0.81   63.7    55    5.0   235    10.4   949.2    0.00 
 247   10:40   0.83   64.5    52    5.7   252    11.9   949.2    0.00 
 247   10:50   0.85   64.5    50    6.0   240    10.0   949.2    0.00 
 247   11:00   0.86   65.0    48    6.2   231    11.3   949.2    0.00 
 247   11:10   0.87   64.5    48    7.3   228    12.4   949.1    0.00 
 247   11:20   0.89   65.0    47    5.4   238    11.3   949.1    0.00 
 247   11:30   0.90   67.0    44    5.7   253    13.0   949.0    0.00 
 247   11:40   0.91   68.0    43    6.8   264    12.5   949.0    0.00 
 247   11:50   0.91   67.5    42    5.7   246    12.1   948.9    0.00 
 247   12:00   0.91   66.7    43    7.6   228    12.9   948.9    0.00 
 247   12:10   0.92   67.2    40    6.4   271    13.9   948.9    0.00 
 247   12:20   0.91   68.3    41    4.5   266    10.2   948.9    0.00 
 247   12:30   0.91   69.1    38    6.1   276    11.8   948.9    0.00 
 247   12:40   0.91   68.7    39    7.2   261    12.3   948.9    0.00 
 247   12:50   0.88   68.8    41    4.9   230    12.6   948.9    0.00 
 247   13:00   0.88   69.4    40    4.1   269    10.2   948.9    0.00 
 247   13:10   0.88   70.6    38    7.6   281    13.2   948.9    0.00 
 247   13:20   0.87   69.8    41    5.6   229    11.7   948.9    0.00 
 247   13:30   0.86   68.8    43    5.8   236    11.5   948.8    0.00 
 247   13:40   0.85   70.3    39    5.7   253    11.1   948.9    0.00 
 247   13:50   0.82   70.8    38    6.5   237    12.0   948.9    0.00 
 247   14:00   0.81   70.5    40    6.0   278    11.8   948.9    0.00 
 247   14:10   0.80   71.2    38    6.0   286    11.8   948.9    0.00 
 247   14:20   0.77   70.7    41    6.4   256    12.1   948.8    0.00 
 247   14:30   0.75   71.3    40    6.5   256    12.1   948.8    0.00 
 247   14:40   0.72   70.9    42    8.4   281    14.8   948.8    0.00 
 247   14:50   0.70   70.0    43    6.2   280    14.2   948.7    0.00 
 247   15:00   0.67   70.7    41    7.1   275    13.1   948.6    0.00 
 247   15:10   0.65   70.7    41    7.4   292    12.6   948.6    0.00 
 247   15:20   0.61   69.8    40    7.4   292    12.9   948.5    0.00 
 247   15:30   0.59   70.9    39    7.3   277    12.1   948.5    0.00 
 247   15:40   0.56   70.7    39    9.5   289    14.3   948.4    0.00 
 247   15:50   0.52   70.9    39    9.7   280    16.1   948.4    0.00 
 247   16:00   0.49   69.8    40    8.0   286    12.5   948.4    0.00 
 247   16:10   0.46   69.9    40    7.5   271    12.9   948.4    0.00 
 247   16:20   0.42   70.0    39    8.7   276    14.2   948.4    0.00 
 247   16:30   0.39   69.7    40    7.7   279    12.4   948.5    0.00 
 247   16:40   0.36   68.7    40    6.9   281    12.2   948.5    0.00 
 247   16:50   0.32   68.7    41    5.1   267    10.2   948.5    0.00 
 247   17:00   0.29   68.5    42    4.8   274     7.2   948.5    0.00 
 247   17:10   0.25   67.9    43    4.9   262     8.8   948.5    0.00 
 247   17:20   0.22   67.4    44    5.1   270     8.0   948.5    0.00 
 247   17:30   0.19   66.7    45    4.4   254     7.7   948.4    0.00 
 247   17:40   0.15   66.5    45    6.2   283     9.4   948.5    0.00 
 247   17:50   0.12   65.7    45    6.6   279     9.9   948.5    0.00 
 247   18:00   0.09   64.3    47    5.2   277     7.9   948.4    0.00 
 247   18:10   0.05   63.3    48    4.9   278     6.7   948.4    0.00 
 247   18:20   0.01   62.1    50    4.8   279     6.5   948.4    0.00 
 247   18:30   0.01   60.9    53    3.9   283     5.7   948.5    0.00 
 247   18:40   0.01   59.8    56    2.7   308     5.3   948.5    0.00 
 247   18:50   0.00   59.5    56    3.5   301     6.9   948.5    0.00 
 247   19:00   0.00   58.6    58    2.1   296     4.6   948.6    0.00 
 247   19:10   0.00   57.2    60    1.0    43     2.8   948.6    0.00 
 247   19:20   0.00   55.9    62    2.3   349     3.3   948.6    0.00 
 247   19:30   0.00   55.0    64    1.0   299     3.0   948.6    0.00 
 247   19:40   0.00   54.1    65    0.6    74     2.4   948.8    0.00 
 247   19:50   0.00   53.3    66    0.3   305     3.1   948.8    0.00 
 247   20:00   0.00   52.8    68    0.5   284     3.1   949.0    0.00 
 247   20:10   0.00   52.1    69    0.7    51     2.8   949.1    0.00 
 247   20:20   0.00   51.6    70    1.0   319     1.9   949.1    0.00 
 247   20:30   0.00   51.2    72    0.7   282     2.0   949.1    0.00 
 247   20:40   0.00   50.6    73    0.8   288     2.1   949.1    0.00 
 247   20:50   0.00   50.0    74    0.1   278     1.0   949.2    0.00 
 247   21:00   0.00   49.6    74    0.0   165     0.4   949.2    0.00 
 247   21:10   0.00   49.2    74    0.2    48     1.6   949.3    0.00 
 247   21:20   0.00   48.8    75    0.0    42     0.6   949.3    0.00 
 247   21:30   0.00   48.8    76    0.1   325     1.1   949.2    0.00 
 247   21:40   0.00   48.3    77    2.0   289     4.5   949.2    0.00 
 247   21:50   0.00   47.6    78    1.8   341     3.3   949.1    0.00 
 247   22:00   0.00   47.3    78    0.4   289     1.8   949.1    0.00 
 247   22:10   0.00   47.2    77    0.4   281     1.8   949.1    0.00 
 247   22:20   0.00   46.9    78    0.1   328     0.9   949.1    0.00 
 247   22:30   0.00   46.4    79    0.2   277     1.7   949.1    0.00 
 247   22:40   0.00   46.1    78    0.1   269     1.2   949.1    0.00 
 247   22:50   0.00   45.9    78    0.6   268     1.9   949.1    0.00 
 247   23:00   0.00   45.3    79    1.1   285     2.6   949.1    0.00 
 247   23:10   0.00   45.0    79    0.1   288     1.4   949.1    0.00 
 247   23:20   0.00   45.2    77    1.5   278     2.2   949.1    0.00 
 247   23:30   0.00   44.9    77    0.4    59     1.7   949.1    0.00 
 247   23:40   0.00   44.9    76    1.5   284     3.1   949.1    0.00 
 247   23:50   0.00   44.8    76    0.4   307     2.6   949.1    0.00 
 248    0:00   0.00   45.0    74    0.6   276     2.3   949.2    0.00 
 248    0:10   0.00   44.8    75    0.7   262     2.0   949.2    0.00 
 248    0:20   0.00   44.6    74    1.8   302     3.8   949.2    0.00 
 248    0:30   0.00   43.9    76    1.5   274     4.2   949.2    0.00 
 248    0:40   0.00   44.6    72    0.8   113     1.8   949.3    0.00 
 248    0:50   0.00   43.5    75    2.1   289     3.9   949.2    0.00 
 248    1:00   0.00   43.0    76    0.7   152     1.8   949.2    0.00 
 248    1:10   0.00   43.6    74    2.0   290     3.1   949.1    0.00 
 248    1:20   0.00   43.5    74    1.4   283     3.1   949.1    0.00 
 248    1:30   0.00   44.1    73    0.3   302     2.4   949.1    0.00 
 248    1:40   0.00   43.9    74    0.0   309     0.7   949.0    0.00 
 248    1:50   0.00   44.4    72    1.1   284     3.3   948.9    0.00 
 248    2:00   0.00   44.6    72    0.7   279     2.5   948.9    0.00 
 248    2:10   0.00   44.3    73    0.1   273     1.3   948.9    0.00 
 248    2:20   0.00   44.6    73    0.2   273     1.4   948.9    0.00 
 248    2:30   0.00   44.5    73    0.1    31     0.9   948.9    0.00 
 248    2:40   0.00   44.7    72    0.6   282     2.0   948.8    0.00 
 248    2:50   0.00   44.9    71    0.7   295     2.1   948.8    0.00 
 248    3:00   0.00   45.0    72    0.7   295     1.8   948.8    0.00 
 248    3:10   0.00   44.8    73    0.6   281     1.9   948.7    0.00 
 248    3:20   0.00   44.5    74    1.5   280     2.1   948.6    0.00 
 248    3:30   0.00   44.8    72    0.7   278     3.1   948.5    0.00 
 248    3:40   0.00   45.2    71    1.0   299     2.6   948.5    0.00 
 248    3:50   0.00   45.0    72    0.4   291     2.2   948.5    0.00 
 248    4:00   0.00   45.0    70    1.6   279     3.0   948.5    0.00 
 248    4:10   0.00   45.2    70    1.3   282     2.6   948.4    0.00 
 248    4:20   0.00   44.9    69    1.1    80     2.3   948.5    0.00 
 248    4:30   0.00   45.3    67    1.3   320     2.3   948.5    0.00 
 248    4:40   0.00   45.1    65    0.0   339     0.6   948.5    0.00 
 248    4:50   0.00   45.1    64    0.1   112     0.8   948.5    0.00 
 248    5:00   0.00   45.4    65    0.2    10     1.3   948.4    0.00 
 248    5:10   0.00   45.0    66    1.3   278     3.0   948.4    0.00 
 248    5:20   0.00   44.5    66    1.5    50     2.5   948.5    0.00 
 248    5:30   0.00   44.6    64    0.7   317     1.7   948.4    0.00 

Return to Blue Oak Ranch Reserve graphs page.


Western Regional Climate Center,wrcc@dri.edu